METAR Data
IDs: Format: Raw Decoded Include TAF

Data at: 1326 UTC 22 Apr 2021

KSUA 221247Z 35010KT 10SM CLR 22/16 A3007
KSUA 221147Z 35012KT 10SM SCT080 19/14 A3007
KSUA 221051Z 32005KT 10SM CLR 19/14 A3005
KSUA 221035Z AUTO 33005KT 10SM CLR 19/13 A3005 RMK AO2
KSUA 221015Z AUTO 32007KT 10SM CLR 20/13 A3004 RMK AO2
KSUA 220955Z AUTO 32007KT 10SM CLR 20/13 A3003 RMK AO2
KSUA 220935Z AUTO 32006KT 10SM CLR 20/13 A3003 RMK AO2
KSUA 220915Z AUTO 31005KT 10SM CLR 20/13 A3002 RMK AO2
KSUA 220855Z AUTO 31004KT 10SM SCT085 SCT120 20/13 A3002 RMK AO2
KSUA 220835Z AUTO 31006KT 10SM OVC085 20/12 A3002 RMK AO2
KSUA 220815Z AUTO 33008KT 10SM BKN085 20/12 A3001 RMK AO2
KSUA 220755Z AUTO 33007KT 10SM SCT085 20/12 A3001 RMK AO2
KSUA 220735Z AUTO 33006KT 10SM CLR 21/12 A3001 RMK AO2
KSUA 220715Z AUTO 33006KT 10SM CLR 21/12 A3001 RMK AO2
KSUA 220655Z AUTO 33007KT 10SM CLR 21/13 A3001 RMK AO2
KSUA 220635Z AUTO 32003KT 10SM CLR 21/14 A3002 RMK AO2
KSUA 220615Z AUTO 30004KT 10SM CLR 21/15 A3002 RMK AO2
KSUA 220555Z AUTO 30004KT 10SM CLR 22/14 A3002 RMK AO2
KSUA 220535Z AUTO 29004KT 10SM CLR 22/16 A3002 RMK AO2
KSUA 220515Z AUTO 28005KT 10SM CLR 22/16 A3003 RMK AO2
KSUA 220455Z AUTO 27004KT 10SM CLR 22/17 A3003 RMK AO2
KSUA 220435Z AUTO 27004KT 10SM CLR 22/17 A3003 RMK AO2
KSUA 220415Z AUTO 28005KT 10SM CLR 22/18 A3002 RMK AO2
KSUA 220355Z AUTO 27003KT 10SM CLR 22/19 A3002 RMK AO2
KSUA 220335Z AUTO 00000KT 10SM CLR 23/19 A3002 RMK AO2
KSUA 220315Z AUTO 21005KT 10SM CLR 23/20 A3002 RMK AO2
KSUA 220255Z AUTO 00000KT 10SM CLR 23/19 A3001 RMK AO2
KSUA 220235Z AUTO 00000KT 10SM CLR 22/19 A3001 RMK AO2
KSUA 220215Z AUTO 00000KT 10SM CLR 23/19 A3000 RMK AO2
KSUA 220155Z AUTO 00000KT 10SM CLR 24/19 A3000 RMK AO2
KSUA 220147Z VRB04KT 7SM FEW018 SCT025 25/19 A3001
KSUA 220047Z 12005KT 7SM VCSH FEW018 SCT025 25/19 A3000
KSUA 212347Z 12005KT 7SM VCSH SCT018 BKN025 27/17 A2998
KSUA 212247Z 12005KT 7SM VCSH SCT018 BKN025 27/21 A2997
KSUA 212147Z 10006KT 7SM VCSH SCT018 BKN025 27/21 A2997
KSUA 212047Z VRB06KT 7SM VCSH SCT018 BKN025 27/22 A2996
KSUA 211947Z 30005KT 6SM SHRA SCT018 BKN025 29/20 A2997
KSUA 211847Z 29006KT 5SM RA SCT015 BKN022 27/20 A2999
KSUA 211747Z 29006KT 7SM VCSH SCT015 BKN022 28/20 A3000
KSUA 211647Z 28004KT 6SM HZ SCT015 BKN022 27/20 A3001
KSUA 211550Z 27005KT 10SM SCT019 BKN037 BKN065 27/20 A3003
KSUA 211450Z 33004KT 10SM FEW022 SCT050 27/20 A3001
KSUA 211350Z 29008KT 7SM FEW022 SCT033 BKN045 26/22 A3001
KSUA 211247Z 29008KT 7SM FEW025 SCT040 BKN060 24/22 A3000
KSUA 211147Z 26005KT 7SM SCT080 23/21 A2999
KSUA 211050Z 25004KT 10SM FEW015 22/20 A2998
KSUA 211035Z AUTO 25003KT 10SM CLR 22/20 A2998 RMK AO2 LTG DSNT S
KSUA 211015Z AUTO 23004KT 7SM SCT120 22/20 A2998 RMK AO2
KSUA 210955Z AUTO 25004KT 7SM SCT120 21/20 A2998 RMK AO2
KSUA 210935Z AUTO 23003KT 7SM CLR 22/20 A2998 RMK AO2
KSUA 210915Z AUTO 21004KT 7SM CLR 22/20 A2997 RMK AO2
KSUA 210855Z AUTO 21003KT 7SM CLR 22/20 A2997 RMK AO2 LTG DSNT SE
KSUA 210835Z AUTO 25003KT 7SM CLR 22/20 A2997 RMK AO2
KSUA 210815Z AUTO 21004KT 7SM CLR 22/20 A2997 RMK AO2
KSUA 210755Z AUTO 23003KT 7SM CLR 22/20 A2996 RMK AO2
KSUA 210735Z AUTO 21003KT 7SM CLR 22/20 A2996 RMK AO2
KSUA 210715Z AUTO 22003KT 10SM CLR 22/20 A2995 RMK AO2
KSUA 210655Z AUTO 23003KT 10SM CLR 22/20 A2996 RMK AO2
KSUA 210635Z AUTO 24004KT 10SM CLR 23/20 A2997 RMK AO2
KSUA 210615Z AUTO 24003KT 7SM CLR 23/21 A2997 RMK AO2
KSUA 210555Z AUTO 22004KT 7SM CLR 23/21 A2998 RMK AO2
KSUA 210535Z AUTO 22003KT 7SM SCT042 23/21 A2998 RMK AO2
KSUA 210515Z AUTO 21003KT 7SM SCT033 SCT039 23/21 A2998 RMK AO2
KSUA 210455Z AUTO 21003KT 7SM BKN037 23/21 A2999 RMK AO2
KSUA 210435Z AUTO 20003KT 7SM SCT037 23/21 A2998 RMK AO2
KSUA 210415Z AUTO 20003KT 7SM CLR 23/21 A2998 RMK AO2
KSUA 210355Z AUTO 20003KT 10SM CLR 23/21 A2998 RMK AO2
KSUA 210335Z AUTO 19003KT 10SM CLR 23/21 A2998 RMK AO2
KSUA 210315Z AUTO 19003KT 10SM CLR 24/21 A2998 RMK AO2
KSUA 210255Z AUTO 18003KT 10SM CLR 24/21 A2998 RMK AO2
KSUA 210235Z AUTO 20003KT 10SM CLR 24/21 A2998 RMK AO2
KSUA 210215Z AUTO 20004KT 10SM CLR 25/21 A2998 RMK AO2
KSUA 210155Z AUTO 00000KT 10SM CLR 25/21 A2997 RMK AO2
KSUA 210147Z 28004KT 7SM SCT020 25/21 A2997